createdAt,value
2023-12-30T00:02:17.322Z,1.67
2023-12-30T00:04:43.863Z,2.42
2023-12-30T00:07:10.618Z,1.15
2023-12-30T00:09:37.142Z,1.00
2023-12-30T00:12:04.263Z,0.98
2023-12-30T00:14:30.741Z,1.02
2023-12-30T00:16:57.215Z,1.00
2023-12-30T00:19:23.748Z,2.80
2023-12-30T00:21:50.325Z,0.80
2023-12-30T00:24:17.637Z,1.63
2023-12-30T00:26:44.075Z,1.85
2023-12-30T00:29:12.938Z,2.00
2023-12-30T00:31:39.564Z,2.05
2023-12-30T00:34:06.136Z,0.80
2023-12-30T00:36:32.573Z,1.45
2023-12-30T00:38:59.001Z,1.17
2023-12-30T00:41:26.495Z,1.30
2023-12-30T00:43:53.055Z,1.83
2023-12-30T00:46:22.981Z,1.25
2023-12-30T00:48:56.830Z,1.38
2023-12-30T00:51:24.662Z,1.75
2023-12-30T00:53:51.168Z,1.35
2023-12-30T00:56:17.715Z,0.88
2023-12-30T00:58:44.477Z,0.98
2023-12-30T01:01:11.051Z,1.30
2023-12-30T01:03:38.071Z,1.38
2023-12-30T01:06:04.718Z,1.20
2023-12-30T01:08:31.325Z,1.52
2023-12-30T01:10:57.844Z,1.33
2023-12-30T01:13:24.417Z,1.63
2023-12-30T01:15:50.945Z,1.25
2023-12-30T01:18:17.495Z,1.10
2023-12-30T01:20:44.114Z,1.10
2023-12-30T01:23:10.581Z,1.60
2023-12-30T01:25:39.440Z,1.50
2023-12-30T01:28:08.799Z,1.33
2023-12-30T01:30:37.917Z,1.42
2023-12-30T01:33:05.512Z,1.27
2023-12-30T01:35:32.591Z,1.60
2023-12-30T01:37:59.029Z,1.33
2023-12-30T01:40:28.613Z,1.65
2023-12-30T01:42:55.152Z,1.85
2023-12-30T01:45:21.716Z,1.35
2023-12-30T01:47:48.221Z,1.33
2023-12-30T01:50:14.837Z,2.05
2023-12-30T01:52:41.387Z,1.70
2023-12-30T01:55:09.119Z,2.08
2023-12-30T01:57:35.819Z,1.30
2023-12-30T02:00:02.699Z,1.65
2023-12-30T02:02:29.634Z,0.80
2023-12-30T02:04:56.636Z,1.60
2023-12-30T02:07:23.179Z,1.92
2023-12-30T02:09:50.309Z,1.92
2023-12-30T02:12:16.849Z,2.28
2023-12-30T02:14:43.334Z,1.77
2023-12-30T02:17:09.936Z,0.85
2023-12-30T02:19:37.063Z,1.55
2023-12-30T02:22:03.808Z,1.90
2023-12-30T02:24:30.342Z,1.50
2023-12-30T02:26:56.921Z,1.48
2023-12-30T02:29:23.372Z,1.70
2023-12-30T02:31:50.036Z,1.70
2023-12-30T02:34:18.915Z,1.27
2023-12-30T02:36:46.264Z,1.90
2023-12-30T02:39:12.968Z,1.80
2023-12-30T02:41:39.625Z,1.42
2023-12-30T02:44:06.285Z,1.27
2023-12-30T02:46:33.010Z,1.25
2023-12-30T02:49:04.176Z,1.85
2023-12-30T02:51:30.901Z,1.58
2023-12-30T02:53:57.625Z,1.85
2023-12-30T02:56:27.760Z,1.77
2023-12-30T02:58:57.207Z,1.92
2023-12-30T03:01:28.768Z,1.55
2023-12-30T03:03:57.080Z,1.35
2023-12-30T03:06:23.671Z,2.70
2023-12-30T03:08:50.636Z,1.60
2023-12-30T03:11:17.313Z,1.40
2023-12-30T03:13:43.982Z,1.30
2023-12-30T03:16:17.494Z,1.52
2023-12-30T03:18:44.940Z,1.88
2023-12-30T03:21:15.028Z,1.70
2023-12-30T03:23:41.792Z,1.35
2023-12-30T03:26:11.931Z,1.45
2023-12-30T03:28:38.594Z,1.75
2023-12-30T03:31:06.461Z,1.40
2023-12-30T03:33:32.949Z,1.35
2023-12-30T03:35:59.989Z,1.63
2023-12-30T03:38:26.476Z,1.92
2023-12-30T03:40:52.945Z,1.23
2023-12-30T03:43:19.365Z,1.25
2023-12-30T03:45:45.819Z,1.23
2023-12-30T03:48:12.552Z,2.53
2023-12-30T03:50:39.061Z,1.38
2023-12-30T03:53:06.420Z,1.70
2023-12-30T03:55:33.103Z,1.27
2023-12-30T03:57:59.840Z,2.35
2023-12-30T04:00:26.353Z,1.55
2023-12-30T04:02:52.857Z,2.45
2023-12-30T04:05:19.499Z,1.35
2023-12-30T04:07:46.451Z,1.70
2023-12-30T04:10:14.451Z,1.27
2023-12-30T04:12:40.999Z,1.52
2023-12-30T04:15:09.142Z,1.30
2023-12-30T04:17:35.609Z,2.05
2023-12-30T04:20:02.455Z,1.48
2023-12-30T04:22:29.880Z,1.20
2023-12-30T04:24:58.701Z,1.63
2023-12-30T04:27:25.322Z,1.33
2023-12-30T04:29:52.134Z,1.33
2023-12-30T04:32:21.946Z,1.88
2023-12-30T04:34:50.218Z,1.15
2023-12-30T04:37:17.612Z,1.58
2023-12-30T04:39:44.157Z,1.42
2023-12-30T04:42:10.918Z,0.88
2023-12-30T04:44:37.438Z,1.50
2023-12-30T04:47:04.017Z,1.17
2023-12-30T04:49:30.592Z,1.50
2023-12-30T04:51:57.188Z,1.30
2023-12-30T04:54:23.718Z,1.50
2023-12-30T04:56:50.815Z,1.35
2023-12-30T04:59:17.339Z,1.45
2023-12-30T05:01:43.838Z,1.52
2023-12-30T05:04:10.830Z,1.80
2023-12-30T05:06:37.947Z,1.35
2023-12-30T05:09:05.567Z,1.70
2023-12-30T05:11:32.009Z,1.35
2023-12-30T05:13:58.511Z,1.27
2023-12-30T05:16:24.999Z,1.40
2023-12-30T05:18:51.567Z,1.50
2023-12-30T05:21:18.945Z,1.10
2023-12-30T05:23:45.676Z,1.45
2023-12-30T05:26:15.413Z,1.48
2023-12-30T05:28:42.077Z,1.27
2023-12-30T05:31:08.686Z,1.77
2023-12-30T05:33:35.442Z,1.30
2023-12-30T05:36:02.064Z,1.75
2023-12-30T05:38:28.499Z,1.73
2023-12-30T05:40:54.999Z,1.73
2023-12-30T05:43:23.040Z,1.55
2023-12-30T05:45:50.615Z,1.48
2023-12-30T05:48:17.590Z,1.30
2023-12-30T05:50:44.171Z,1.30
2023-12-30T05:53:12.195Z,1.38
2023-12-30T05:55:39.740Z,1.42
2023-12-30T05:58:06.391Z,1.35
2023-12-30T06:00:32.938Z,1.40
2023-12-30T06:02:59.542Z,0.90
2023-12-30T06:05:27.010Z,1.42
2023-12-30T06:07:53.812Z,1.42
2023-12-30T06:10:20.671Z,1.02
2023-12-30T06:12:47.163Z,3.22
2023-12-30T06:15:13.754Z,1.83
2023-12-30T06:17:40.473Z,1.30
2023-12-30T06:20:09.453Z,1.23
2023-12-30T06:22:36.254Z,1.25
2023-12-30T06:25:04.740Z,2.50
2023-12-30T06:27:31.213Z,1.27
2023-12-30T06:29:57.640Z,1.73
2023-12-30T06:32:24.069Z,1.17
2023-12-30T06:34:50.564Z,1.20
2023-12-30T06:37:17.110Z,1.48
2023-12-30T06:39:44.667Z,1.13
2023-12-30T06:42:11.186Z,2.10
2023-12-30T06:44:37.648Z,1.77
2023-12-30T06:47:06.255Z,1.02
2023-12-30T06:49:32.865Z,1.60
2023-12-30T06:51:59.418Z,1.15
2023-12-30T06:54:26.883Z,1.02
2023-12-30T06:56:54.567Z,1.02
2023-12-30T06:59:21.358Z,1.30
2023-12-30T07:01:47.877Z,1.45
2023-12-30T07:04:15.459Z,1.23
2023-12-30T07:06:42.095Z,1.90
2023-12-30T07:09:08.547Z,1.10
2023-12-30T07:11:35.284Z,2.88
2023-12-30T07:14:01.821Z,0.85
2023-12-30T07:16:28.374Z,1.40
2023-12-30T07:18:55.104Z,1.10
2023-12-30T07:21:21.735Z,1.20
2023-12-30T07:23:48.266Z,2.03
2023-12-30T07:26:14.850Z,1.48
2023-12-30T07:28:41.377Z,2.05
2023-12-30T07:31:08.011Z,1.48
2023-12-30T07:33:36.724Z,1.77
2023-12-30T07:36:05.239Z,1.63
2023-12-30T07:38:32.033Z,1.33
2023-12-30T07:40:58.478Z,1.95
2023-12-30T07:43:25.579Z,1.67
2023-12-30T07:45:52.270Z,1.10
2023-12-30T07:48:18.898Z,1.05
2023-12-30T07:50:45.387Z,1.52
2023-12-30T07:53:12.135Z,1.88
2023-12-30T07:55:38.776Z,1.85
2023-12-30T07:58:05.369Z,1.50
2023-12-30T08:00:32.286Z,1.40
2023-12-30T08:02:58.773Z,1.33
2023-12-30T08:05:25.282Z,2.03
2023-12-30T08:07:51.807Z,1.13
2023-12-30T08:10:19.459Z,1.27
2023-12-30T08:12:45.895Z,1.52
2023-12-30T08:15:12.484Z,1.45
2023-12-30T08:17:39.234Z,1.63
2023-12-30T08:20:06.622Z,1.95
2023-12-30T08:22:33.659Z,1.20
2023-12-30T08:25:00.520Z,1.55
2023-12-30T08:27:27.178Z,2.65
2023-12-30T08:29:53.713Z,1.77
2023-12-30T08:32:20.194Z,1.30
2023-12-30T08:34:46.751Z,1.75
2023-12-30T08:37:13.299Z,1.70
2023-12-30T08:39:39.903Z,1.35
2023-12-30T08:42:06.929Z,1.73
2023-12-30T08:44:33.533Z,1.90
2023-12-30T08:47:00.090Z,1.02
2023-12-30T08:49:26.595Z,1.40
2023-12-30T08:51:53.166Z,1.63
2023-12-30T08:54:19.879Z,1.33
2023-12-30T08:56:46.482Z,1.80
2023-12-30T08:59:12.934Z,2.20
2023-12-30T09:01:39.520Z,1.70
2023-12-30T09:04:06.118Z,1.73
2023-12-30T09:06:32.584Z,1.38
2023-12-30T09:08:59.007Z,2.50
2023-12-30T09:11:25.478Z,1.60
2023-12-30T09:13:54.478Z,2.15
2023-12-30T09:16:22.107Z,1.30
2023-12-30T09:18:48.778Z,3.10
2023-12-30T09:21:15.524Z,1.73
2023-12-30T09:23:42.399Z,1.83
2023-12-30T09:26:09.251Z,1.65
2023-12-30T09:28:36.059Z,1.70
2023-12-30T09:31:02.858Z,2.55
2023-12-30T09:33:29.552Z,1.73
2023-12-30T09:35:56.335Z,1.67
2023-12-30T09:38:25.678Z,1.90
2023-12-30T09:40:53.532Z,2.92
2023-12-30T09:43:24.088Z,3.17
2023-12-30T09:45:52.394Z,1.60
2023-12-30T09:48:26.282Z,1.60
2023-12-30T09:50:54.472Z,1.85
2023-12-30T09:53:23.734Z,2.15
2023-12-30T09:55:54.194Z,2.03
2023-12-30T09:58:22.688Z,1.58
2023-12-30T10:00:49.712Z,1.98
2023-12-30T10:03:19.465Z,1.50
2023-12-30T10:05:46.334Z,1.38
2023-12-30T10:08:13.050Z,1.63
2023-12-30T10:10:47.926Z,2.30
2023-12-30T10:13:16.236Z,2.10
2023-12-30T10:15:45.592Z,1.80
2023-12-30T10:18:14.138Z,1.83
2023-12-30T10:20:42.824Z,1.92
2023-12-30T10:23:09.436Z,2.10
2023-12-30T10:25:36.370Z,1.83
2023-12-30T10:28:03.491Z,1.85
2023-12-30T10:30:31.739Z,3.70
2023-12-30T10:33:08.261Z,1.73
2023-12-30T10:35:35.278Z,1.60
2023-12-30T10:38:05.374Z,1.77
2023-12-30T10:40:32.313Z,2.72
2023-12-30T10:42:58.769Z,2.30
2023-12-30T10:45:25.327Z,2.22
2023-12-30T10:47:52.633Z,1.65
2023-12-30T10:50:19.544Z,3.40
2023-12-30T10:52:52.895Z,2.47
2023-12-30T10:55:20.589Z,1.95
2023-12-30T10:57:54.897Z,2.10
2023-12-30T11:00:21.758Z,1.65
2023-12-30T11:02:51.291Z,1.80
2023-12-30T11:05:40.073Z,2.58
2023-12-30T11:08:06.721Z,2.08
2023-12-30T11:10:34.581Z,2.70
2023-12-30T11:13:01.295Z,1.50
2023-12-30T11:15:32.105Z,2.40
2023-12-30T11:17:59.719Z,1.35
2023-12-30T11:20:33.816Z,2.67
2023-12-30T11:23:05.235Z,1.90
2023-12-30T11:25:48.310Z,1.88
2023-12-30T11:28:18.144Z,2.10
2023-12-30T11:30:47.283Z,2.20
2023-12-30T11:33:15.221Z,1.83
2023-12-30T11:35:41.936Z,1.92
2023-12-30T11:38:12.248Z,2.05
2023-12-30T11:40:50.573Z,3.17
2023-12-30T11:43:17.562Z,2.50
2023-12-30T11:45:44.020Z,1.73
2023-12-30T11:48:10.710Z,2.20
2023-12-30T11:50:37.189Z,2.38
2023-12-30T11:53:04.387Z,2.63
2023-12-30T11:55:31.140Z,2.90
2023-12-30T11:57:57.723Z,2.45
2023-12-30T12:00:27.251Z,2.60
2023-12-30T12:02:59.028Z,2.80
2023-12-30T12:05:25.557Z,2.40
2023-12-30T12:07:52.033Z,2.15
2023-12-30T12:10:19.219Z,2.08
2023-12-30T12:12:46.953Z,2.38
2023-12-30T12:15:14.346Z,2.60
2023-12-30T12:17:42.197Z,2.58
2023-12-30T12:20:15.264Z,2.63
2023-12-30T12:22:50.142Z,3.75
2023-12-30T12:25:17.036Z,3.10
2023-12-30T12:27:43.518Z,3.80
2023-12-30T12:30:13.963Z,7.38
2023-12-30T12:32:41.763Z,15.95
2023-12-30T12:35:08.672Z,24.73
2023-12-30T12:37:37.078Z,8.48
2023-12-30T12:40:05.974Z,5.70
2023-12-30T12:42:34.284Z,4.90
2023-12-30T12:45:00.853Z,4.50
2023-12-30T12:47:27.851Z,7.40
2023-12-30T12:50:02.823Z,13.43
2023-12-30T12:52:31.442Z,7.78
2023-12-30T12:55:09.789Z,5.68
2023-12-30T12:57:37.127Z,7.40
2023-12-30T13:00:09.145Z,7.25
2023-12-30T13:02:36.337Z,6.43
2023-12-30T13:05:03.542Z,7.75
2023-12-30T13:07:33.388Z,7.15
2023-12-30T13:10:22.065Z,6.82
2023-12-30T13:12:57.601Z,6.65
2023-12-30T13:15:26.197Z,6.63
2023-12-30T13:17:55.106Z,8.82
2023-12-30T13:20:21.817Z,8.40
2023-12-30T13:23:07.570Z,8.20
2023-12-30T13:25:41.071Z,7.25
2023-12-30T13:28:07.742Z,8.60
2023-12-30T13:30:35.605Z,8.88
2023-12-30T13:33:05.577Z,9.25
2023-12-30T13:35:41.768Z,9.65
2023-12-30T13:38:13.714Z,9.68
2023-12-30T13:43:10.729Z,9.32
2023-12-30T13:45:42.876Z,10.70
2023-12-30T13:48:15.362Z,10.55
2023-12-30T13:50:53.490Z,10.90
2023-12-30T13:53:22.318Z,9.85
2023-12-30T13:55:49.169Z,11.30
2023-12-30T13:58:15.949Z,9.38
2023-12-30T14:00:43.837Z,10.35
2023-12-30T14:03:10.743Z,11.35
2023-12-30T14:05:42.017Z,12.27
2023-12-30T14:08:27.271Z,9.57
2023-12-30T14:10:55.275Z,10.68
2023-12-30T14:13:24.124Z,12.85
2023-12-30T14:15:52.478Z,9.77
2023-12-30T14:18:19.352Z,10.55
2023-12-30T14:20:47.291Z,11.60
2023-12-30T14:23:13.861Z,13.63
2023-12-30T14:25:42.130Z,16.02
2023-12-30T14:28:08.996Z,11.13
2023-12-30T14:30:36.035Z,11.63
2023-12-30T14:33:02.971Z,12.98
2023-12-30T14:35:29.788Z,12.40
2023-12-30T14:37:56.311Z,25.63
2023-12-30T14:40:23.473Z,12.85
2023-12-30T14:42:51.893Z,12.15
2023-12-30T14:45:20.402Z,10.52
2023-12-30T14:47:47.571Z,15.43
2023-12-30T14:50:14.515Z,12.75
2023-12-30T14:52:41.626Z,11.52
2023-12-30T14:55:10.910Z,11.40
2023-12-30T14:57:41.421Z,11.85
2023-12-30T15:00:15.404Z,12.73
2023-12-30T15:02:43.032Z,8.60
2023-12-30T15:05:15.658Z,10.13
2023-12-30T15:07:44.946Z,7.60
2023-12-30T15:10:14.312Z,13.32
2023-12-30T15:12:42.409Z,15.32
2023-12-30T15:15:09.376Z,16.02
2023-12-30T15:17:36.118Z,13.27
2023-12-30T15:20:03.195Z,13.80
2023-12-30T15:22:31.076Z,12.02
2023-12-30T15:24:58.186Z,7.68
2023-12-30T15:27:24.946Z,5.53
2023-12-30T15:29:51.584Z,9.32
2023-12-30T15:32:18.188Z,6.55
2023-12-30T15:34:45.010Z,7.22
2023-12-30T15:37:15.083Z,4.57
2023-12-30T15:39:42.064Z,4.65
2023-12-30T15:42:09.279Z,4.30
2023-12-30T15:44:39.388Z,5.13
2023-12-30T15:47:08.294Z,4.90
2023-12-30T15:49:35.527Z,5.40
2023-12-30T15:52:02.310Z,6.03
2023-12-30T15:54:28.977Z,4.78
2023-12-30T15:56:55.601Z,4.10
2023-12-30T15:59:22.143Z,4.15
2023-12-30T16:01:54.881Z,4.68
2023-12-30T16:04:21.369Z,4.32
2023-12-30T16:06:47.969Z,4.07
2023-12-30T16:09:14.449Z,5.85
2023-12-30T16:11:40.929Z,4.78
2023-12-30T16:14:09.347Z,4.72
2023-12-30T16:16:37.486Z,4.80
2023-12-30T16:19:04.107Z,5.93
2023-12-30T16:21:30.892Z,5.50
2023-12-30T16:23:57.419Z,4.38
2023-12-30T16:26:25.016Z,4.45
2023-12-30T16:28:51.483Z,5.10
2023-12-30T16:31:17.976Z,3.80
2023-12-30T16:33:46.714Z,4.38
2023-12-30T16:36:14.304Z,4.18
2023-12-30T16:38:40.887Z,4.82
2023-12-30T16:41:07.428Z,4.38
2023-12-30T16:43:36.987Z,3.85
2023-12-30T16:46:03.950Z,4.00
2023-12-30T16:48:30.532Z,4.03
2023-12-30T16:50:57.062Z,4.03
2023-12-30T16:53:23.540Z,4.38
2023-12-30T16:55:51.629Z,3.50
2023-12-30T16:58:19.799Z,4.90
2023-12-30T17:00:47.913Z,4.15
2023-12-30T17:03:15.087Z,4.97
2023-12-30T17:05:44.715Z,4.25
2023-12-30T17:08:11.264Z,6.75
2023-12-30T17:10:37.895Z,12.18
2023-12-30T17:13:04.731Z,16.73
2023-12-30T17:15:31.376Z,9.52
2023-12-30T17:17:57.835Z,8.23
2023-12-30T17:20:24.316Z,6.35
2023-12-30T17:22:50.791Z,6.35
2023-12-30T17:25:23.465Z,8.60
2023-12-30T17:27:50.043Z,8.02
2023-12-30T17:30:16.565Z,4.20
2023-12-30T17:32:43.177Z,5.63
2023-12-30T17:35:09.794Z,5.32
2023-12-30T17:37:37.325Z,3.58
2023-12-30T17:40:05.163Z,4.43
2023-12-30T17:42:31.658Z,5.10
2023-12-30T17:44:58.098Z,4.15
2023-12-30T17:47:24.565Z,4.25
2023-12-30T17:49:51.085Z,4.63
2023-12-30T17:52:17.651Z,4.70
2023-12-30T17:54:44.189Z,7.85
2023-12-30T17:57:10.774Z,4.47
2023-12-30T17:59:37.173Z,6.40
2023-12-30T18:02:03.689Z,5.60
2023-12-30T18:04:30.223Z,6.95
2023-12-30T18:06:56.742Z,5.88
2023-12-30T18:09:23.266Z,8.23
2023-12-30T18:11:49.818Z,9.10
2023-12-30T18:14:18.752Z,9.35
2023-12-30T18:16:45.280Z,5.18
2023-12-30T18:19:12.492Z,6.07
2023-12-30T18:21:39.169Z,6.93
2023-12-30T18:24:05.966Z,4.85
2023-12-30T18:26:32.435Z,4.00
2023-12-30T18:28:58.970Z,9.18
2023-12-30T18:31:25.432Z,5.22
2023-12-30T18:33:51.997Z,5.10
2023-12-30T18:36:18.682Z,5.15
2023-12-30T18:38:45.165Z,8.82
2023-12-30T18:41:11.634Z,7.85
2023-12-30T18:43:38.616Z,4.70
2023-12-30T18:46:05.113Z,6.93
2023-12-30T18:48:31.663Z,7.25
2023-12-30T18:50:58.296Z,4.78
2023-12-30T18:53:24.823Z,5.95
2023-12-30T18:55:51.436Z,8.75
2023-12-30T18:58:18.005Z,9.45
2023-12-30T19:00:44.743Z,11.20
2023-12-30T19:03:11.435Z,9.10
2023-12-30T19:05:38.253Z,7.68
2023-12-30T19:08:05.053Z,3.92
2023-12-30T19:10:31.508Z,7.60
2023-12-30T19:12:58.541Z,8.15
2023-12-30T19:15:25.228Z,8.38
2023-12-30T19:17:51.857Z,4.95
2023-12-30T19:20:18.396Z,4.30
2023-12-30T19:22:46.136Z,4.03
2023-12-30T19:25:12.992Z,7.10
2023-12-30T19:27:39.530Z,5.25
2023-12-30T19:30:06.720Z,5.15
2023-12-30T19:32:33.286Z,7.00
2023-12-30T19:35:01.024Z,5.13
2023-12-30T19:37:28.045Z,5.15
2023-12-30T19:39:54.540Z,4.78
2023-12-30T19:42:21.005Z,11.05
2023-12-30T19:44:47.449Z,11.05
2023-12-30T19:47:14.214Z,9.07
2023-12-30T19:49:40.771Z,5.53
2023-12-30T19:52:07.246Z,5.97
2023-12-30T19:54:33.778Z,7.47
2023-12-30T19:57:00.309Z,4.38
2023-12-30T19:59:27.253Z,3.83
2023-12-30T20:01:53.807Z,4.20
2023-12-30T20:04:20.505Z,4.55
2023-12-30T20:06:48.904Z,4.38
2023-12-30T20:09:16.058Z,4.57
2023-12-30T20:11:42.558Z,4.25
2023-12-30T20:14:09.067Z,3.97
2023-12-30T20:16:35.545Z,4.03
2023-12-30T20:19:02.123Z,4.80
2023-12-30T20:21:28.613Z,4.10
2023-12-30T20:23:55.026Z,4.30
2023-12-30T20:26:21.457Z,5.38
2023-12-30T20:28:47.932Z,3.55
2023-12-30T20:31:18.343Z,3.65
2023-12-30T20:33:45.440Z,4.88
2023-12-30T20:36:19.859Z,3.70
2023-12-30T20:38:46.406Z,3.28
2023-12-30T20:41:13.050Z,3.83
2023-12-30T20:43:39.548Z,3.17
2023-12-30T20:46:09.858Z,3.28
2023-12-30T20:48:42.479Z,3.70
2023-12-30T20:53:35.557Z,3.75
2023-12-30T20:56:03.055Z,3.65
2023-12-30T20:58:30.813Z,3.88
2023-12-30T21:00:57.396Z,3.58
2023-12-30T21:03:23.910Z,3.35
2023-12-30T21:05:52.744Z,3.72
2023-12-30T21:08:19.352Z,3.72
2023-12-30T21:10:45.892Z,3.25
2023-12-30T21:13:12.427Z,3.50
2023-12-30T21:15:38.838Z,2.97
2023-12-30T21:18:05.721Z,3.28
2023-12-30T21:20:32.225Z,3.15
2023-12-30T21:22:58.741Z,4.38
2023-12-30T21:25:27.515Z,3.00
2023-12-30T21:27:54.495Z,2.95
2023-12-30T21:30:22.808Z,3.55
2023-12-30T21:32:50.628Z,3.33
2023-12-30T21:35:19.696Z,3.10
2023-12-30T21:37:54.080Z,3.08
2023-12-30T21:40:20.705Z,3.35
2023-12-30T21:42:47.425Z,3.63
2023-12-30T21:45:14.978Z,3.42
2023-12-30T21:47:42.920Z,3.88
2023-12-30T21:50:09.981Z,3.30
2023-12-30T21:52:38.878Z,3.90
2023-12-30T21:55:06.700Z,3.80
2023-12-30T21:57:33.356Z,3.15
2023-12-30T22:00:00.738Z,3.33
2023-12-30T22:02:28.344Z,3.63
2023-12-30T22:04:54.934Z,3.30
2023-12-30T22:07:21.577Z,3.38
2023-12-30T22:09:48.522Z,3.15
2023-12-30T22:12:15.016Z,3.00
2023-12-30T22:14:41.409Z,3.08
2023-12-30T22:17:11.285Z,3.40
2023-12-30T22:19:38.107Z,2.97
2023-12-30T22:22:04.800Z,3.75
2023-12-30T22:24:31.347Z,3.30
2023-12-30T22:26:57.873Z,3.28
2023-12-30T22:29:24.368Z,3.58
2023-12-30T22:31:50.990Z,3.28
2023-12-30T22:34:17.473Z,3.30
2023-12-30T22:36:43.981Z,3.60
2023-12-30T22:39:12.013Z,2.63
2023-12-30T22:41:38.825Z,3.38
2023-12-30T22:44:05.466Z,2.80
2023-12-30T22:46:32.050Z,3.20
2023-12-30T22:48:58.612Z,4.47
2023-12-30T22:51:25.152Z,3.65
2023-12-30T22:53:52.209Z,3.22
2023-12-30T22:56:18.718Z,3.00
2023-12-30T22:58:46.258Z,4.32
2023-12-30T23:01:13.451Z,3.33
2023-12-30T23:03:40.391Z,2.75
2023-12-30T23:06:07.076Z,3.08
2023-12-30T23:08:33.643Z,3.05
2023-12-30T23:11:00.141Z,3.03
2023-12-30T23:13:26.720Z,2.63
2023-12-30T23:15:54.562Z,3.30
2023-12-30T23:18:21.160Z,3.25
2023-12-30T23:20:47.654Z,3.40
2023-12-30T23:23:14.086Z,3.20
2023-12-30T23:25:40.524Z,2.67
2023-12-30T23:28:07.029Z,3.17
2023-12-30T23:30:33.601Z,3.60
2023-12-30T23:33:00.200Z,2.95
2023-12-30T23:35:26.838Z,2.53
2023-12-30T23:37:53.415Z,2.95
2023-12-30T23:40:20.707Z,2.60
2023-12-30T23:42:47.202Z,2.60
2023-12-30T23:45:13.655Z,2.67
2023-12-30T23:47:40.181Z,2.60
2023-12-30T23:50:06.780Z,2.15
2023-12-30T23:52:33.421Z,2.30
2023-12-30T23:55:00.011Z,2.28
2023-12-30T23:57:26.495Z,2.58
2023-12-30T23:59:52.961Z,2.63
